Time;durP1;ratioP1;P1;durP2;ratioP2;P2;SDS_P1;SDS_P2;PMS_P1;PMS_P2;Temp;Humidity;BMP_temperature;BMP_pressure;BME280_temperature;BME280_humidity;BME280_pressure;Samples;Min_cycle;Max_cycle;Signal;HPM_P1;HPM_P2
2023/05/12 00:01:03;;;;;;;5.90;5.13;;;18.10;52.10;;;;;;5076187;28;20542;-69
2023/05/12 00:03:30;;;;;;;11.20;5.53;;;18.10;51.80;;;;;;5076046;28;20562;-70
2023/05/12 00:05:59;;;;;;;7.30;5.03;;;18.00;51.40;;;;;;5075915;28;20982;-70
2023/05/12 00:08:26;;;;;;;4.93;4.50;;;18.00;51.70;;;;;;5076313;28;20501;-70
2023/05/12 00:10:52;;;;;;;4.87;4.47;;;18.00;51.80;;;;;;5076560;28;20458;-70
2023/05/12 00:13:22;;;;;;;4.43;4.03;;;18.00;51.80;;;;;;5075511;28;20473;-70
2023/05/12 00:15:49;;;;;;;5.30;4.80;;;18.00;51.70;;;;;;5075682;28;20489;-69
2023/05/12 00:18:16;;;;;;;6.40;4.83;;;17.90;51.80;;;;;;5076800;28;20512;-70
2023/05/12 00:20:43;;;;;;;4.70;4.30;;;17.90;51.70;;;;;;5077209;28;20454;-69
2023/05/12 00:23:11;;;;;;;5.93;4.67;;;17.90;51.70;;;;;;5076650;28;20468;-70
2023/05/12 00:25:37;;;;;;;5.10;4.47;;;17.90;51.40;;;;;;5077136;28;20549;-70
2023/05/12 00:28:05;;;;;;;5.50;5.00;;;17.80;51.50;;;;;;5075811;28;20911;-69
2023/05/12 00:30:33;;;;;;;7.00;4.70;;;17.70;51.60;;;;;;5075963;28;20927;-70
2023/05/12 00:33:00;;;;;;;5.50;5.00;;;17.70;51.60;;;;;;5076079;28;20807;-69
2023/05/12 00:35:27;;;;;;;5.00;4.30;;;17.60;51.90;;;;;;5075971;28;20784;-70
2023/05/12 00:37:54;;;;;;;10.30;4.70;;;17.60;52.50;;;;;;5076181;28;20464;-70
2023/05/12 00:40:21;;;;;;;4.27;3.87;;;17.60;52.70;;;;;;5075756;28;20438;-69
2023/05/12 00:42:48;;;;;;;5.33;4.33;;;17.60;52.80;;;;;;5076118;28;20469;-70
2023/05/12 00:45:15;;;;;;;4.50;4.10;;;17.60;52.70;;;;;;5077590;28;20482;-70
2023/05/12 00:47:45;;;;;;;4.73;4.33;;;17.60;52.90;;;;;;5077052;28;20446;-70
2023/05/12 00:50:12;;;;;;;4.50;4.13;;;17.60;52.80;;;;;;5076532;28;20458;-70
2023/05/12 00:52:39;;;;;;;4.97;4.40;;;17.50;53.20;;;;;;5076719;28;20550;-70
2023/05/12 00:55:06;;;;;;;4.90;4.33;;;17.50;53.40;;;;;;5077545;28;20454;-70
2023/05/12 00:57:33;;;;;;;4.57;4.00;;;17.50;53.50;;;;;;5076588;28;20973;-69
2023/05/12 01:00:00;;;;;;;5.20;4.70;;;17.40;53.30;;;;;;5077122;28;20454;-69
2023/05/12 01:02:27;;;;;;;6.03;5.43;;;17.30;53.30;;;;;;5077397;28;20923;-70
2023/05/12 01:04:55;;;;;;;5.97;5.00;;;17.30;53.60;;;;;;5077380;28;20929;-69
2023/05/12 01:07:23;;;;;;;10.30;5.47;;;17.20;53.70;;;;;;5076998;28;20450;-70
2023/05/12 01:09:55;;;;;;;12.30;4.90;;;17.10;53.80;;;;;;5076464;28;20458;-70
2023/05/12 01:12:22;;;;;;;5.73;4.57;;;17.10;54.10;;;;;;5076356;28;20443;-70
2023/05/12 01:14:49;;;;;;;6.20;5.17;;;17.10;54.00;;;;;;5076639;28;20461;-70
2023/05/12 01:17:19;;;;;;;6.93;4.97;;;17.10;54.10;;;;;;5075503;28;20487;-70
2023/05/12 01:19:49;;;;;;;7.90;5.40;;;17.10;54.10;;;;;;5075772;28;20455;-70
2023/05/12 01:22:18;;;;;;;5.70;4.60;;;17.00;54.20;;;;;;5075578;28;20494;-70
2023/05/12 01:24:51;;;;;;;7.93;4.97;;;17.10;54.50;;;;;;5075086;28;20454;-71
2023/05/12 01:27:21;;;;;;;7.33;4.63;;;17.10;54.80;;;;;;5078305;28;20450;-71
2023/05/12 01:29:49;;;;;;;7.87;4.80;;;17.00;54.60;;;;;;5078882;28;20507;-70
2023/05/12 01:32:16;;;;;;;8.33;4.80;;;17.00;54.70;;;;;;5078652;28;20464;-69
2023/05/12 01:34:43;;;;;;;8.50;4.53;;;17.00;54.70;;;;;;5078345;28;20460;-69
2023/05/12 01:37:11;;;;;;;6.73;5.40;;;17.00;55.00;;;;;;5077989;28;20478;-70
2023/05/12 01:39:38;;;;;;;6.00;4.70;;;16.90;55.10;;;;;;5077624;28;20489;-70
2023/05/12 01:42:05;;;;;;;5.50;4.73;;;16.90;55.30;;;;;;5077757;28;20511;-69
2023/05/12 01:44:34;;;;;;;5.50;4.70;;;16.90;55.50;;;;;;5077962;28;20545;-71
2023/05/12 01:47:02;;;;;;;5.80;4.80;;;17.00;55.60;;;;;;5077739;28;20439;-69
2023/05/12 01:49:28;;;;;;;5.10;4.70;;;16.90;55.50;;;;;;5078166;28;20465;-69
2023/05/12 01:51:55;;;;;;;8.50;3.97;;;16.90;55.80;;;;;;5078469;28;20780;-70
2023/05/12 01:54:22;;;;;;;5.63;4.50;;;16.90;56.40;;;;;;5077682;28;20454;-70
2023/05/12 01:56:49;;;;;;;5.53;4.90;;;16.90;56.00;;;;;;5077589;28;20477;-70
2023/05/12 01:59:16;;;;;;;5.80;5.17;;;16.80;56.10;;;;;;5078318;28;20454;-70
2023/05/12 02:01:44;;;;;;;5.93;4.80;;;16.80;56.10;;;;;;5078052;28;20851;-70
2023/05/12 02:04:11;;;;;;;5.50;5.00;;;16.70;56.20;;;;;;5078152;28;20480;-69
2023/05/12 02:06:38;;;;;;;5.87;4.73;;;16.70;56.40;;;;;;5078691;28;20465;-70
2023/05/12 02:09:05;;;;;;;5.33;4.83;;;16.60;56.50;;;;;;5077996;28;20541;-70
2023/05/12 02:11:31;;;;;;;5.83;4.63;;;16.60;57.00;;;;;;5077990;28;20565;-69
2023/05/12 02:13:58;;;;;;;5.03;4.53;;;16.60;57.60;;;;;;5078129;28;20549;-70
2023/05/12 02:16:25;;;;;;;6.80;4.53;;;16.50;57.60;;;;;;5077943;28;20798;-70
2023/05/12 02:18:53;;;;;;;7.50;5.40;;;16.50;57.80;;;;;;5077629;28;20541;-70
2023/05/12 02:21:20;;;;;;;5.37;4.87;;;16.50;58.10;;;;;;5077707;28;20537;-70
2023/05/12 02:23:47;;;;;;;7.50;4.37;;;16.40;58.20;;;;;;5077813;28;20484;-70
2023/05/12 02:26:14;;;;;;;6.73;4.70;;;16.40;59.10;;;;;;5077915;28;20460;-70
2023/05/12 02:28:40;;;;;;;5.43;4.40;;;16.40;58.90;;;;;;5077985;28;20454;-69
2023/05/12 02:31:07;;;;;;;5.67;5.07;;;16.30;59.10;;;;;;5078026;28;20459;-70
2023/05/12 02:33:34;;;;;;;7.10;4.47;;;16.30;59.40;;;;;;5077892;28;20454;-70
2023/05/12 02:36:02;;;;;;;5.57;5.07;;;16.30;59.50;;;;;;5077874;28;20473;-70
2023/05/12 02:38:29;;;;;;;7.50;5.13;;;16.20;59.70;;;;;;5076779;28;20552;-70
2023/05/12 02:40:56;;;;;;;6.00;4.67;;;16.20;60.10;;;;;;5078176;28;20549;-70
2023/05/12 02:43:23;;;;;;;6.60;4.47;;;16.10;60.40;;;;;;5078590;28;20489;-70
2023/05/12 02:45:50;;;;;;;9.17;5.20;;;16.10;61.20;;;;;;5078433;28;20923;-70
2023/05/12 02:48:17;;;;;;;7.17;4.63;;;16.10;61.40;;;;;;5078002;28;20507;-70
2023/05/12 02:50:44;;;;;;;5.53;5.00;;;16.00;61.70;;;;;;5078029;28;20460;-69
2023/05/12 02:53:12;;;;;;;6.80;5.33;;;16.00;62.30;;;;;;5077895;28;20496;-69
2023/05/12 02:55:39;;;;;;;6.93;4.70;;;16.00;62.70;;;;;;5078385;28;20454;-70
2023/05/12 02:58:06;;;;;;;5.67;4.70;;;15.90;63.00;;;;;;5078095;28;20488;-70
2023/05/12 03:00:33;;;;;;;5.83;5.23;;;15.90;63.50;;;;;;5078678;28;20454;-70
2023/05/12 03:03:00;;;;;;;5.77;4.83;;;15.90;64.20;;;;;;5078518;28;20469;-69
2023/05/12 03:05:27;;;;;;;7.50;4.93;;;15.80;64.80;;;;;;5078199;28;20497;-71
2023/05/12 03:07:53;;;;;;;6.23;5.60;;;15.80;65.30;;;;;;5078533;28;20921;-70
2023/05/12 03:10:22;;;;;;;9.90;5.90;;;15.70;65.70;;;;;;5078788;28;20458;-70
2023/05/12 03:12:48;;;;;;;6.13;5.00;;;15.70;66.40;;;;;;5079347;28;20460;-69
2023/05/12 03:15:15;;;;;;;10.63;5.27;;;15.60;67.50;;;;;;5080466;28;20545;-69
2023/05/12 03:17:42;;;;;;;7.30;5.30;;;15.60;68.40;;;;;;5080031;28;20577;-69
2023/05/12 03:20:09;;;;;;;6.53;5.20;;;15.50;69.20;;;;;;5079953;28;20544;-69
2023/05/12 03:22:36;;;;;;;6.57;4.90;;;15.50;70.50;;;;;;5079875;28;20486;-70
2023/05/12 03:25:04;;;;;;;5.10;4.60;;;15.40;70.80;;;;;;5080172;28;20450;-70
2023/05/12 03:27:32;;;;;;;6.20;5.13;;;15.40;71.60;;;;;;5080553;28;20476;-70
2023/05/12 03:30:00;;;;;;;7.23;5.00;;;15.40;72.30;;;;;;5080451;28;20961;-69
2023/05/12 03:32:27;;;;;;;7.30;5.60;;;15.30;73.30;;;;;;5080325;28;20512;-70
2023/05/12 03:34:54;;;;;;;8.90;5.87;;;15.30;74.20;;;;;;5080151;28;20454;-70
2023/05/12 03:37:21;;;;;;;6.50;5.20;;;15.30;74.90;;;;;;5080309;28;20775;-70
2023/05/12 03:39:48;;;;;;;6.63;5.67;;;15.20;75.40;;;;;;5079789;28;20525;-70
2023/05/12 03:42:15;;;;;;;5.27;4.77;;;15.20;76.20;;;;;;5080444;28;20926;-70
2023/05/12 03:44:43;;;;;;;12.23;9.93;;;15.20;76.80;;;;;;5079906;28;20468;-69
2023/05/12 03:47:10;;;;;;;8.37;7.27;;;15.20;77.70;;;;;;5080431;28;20442;-69
2023/05/12 03:49:37;;;;;;;9.13;6.90;;;15.10;78.70;;;;;;5080134;28;20462;-69
2023/05/12 03:52:04;;;;;;;14.53;8.53;;;15.10;80.20;;;;;;5080773;28;20980;-69
2023/05/12 03:54:31;;;;;;;10.57;8.30;;;15.10;80.30;;;;;;5081087;28;20545;-69
2023/05/12 03:56:57;;;;;;;11.73;8.50;;;15.10;81.20;;;;;;5080769;28;20477;-70
2023/05/12 03:59:24;;;;;;;7.80;6.70;;;15.10;82.00;;;;;;5081221;28;20465;-70
2023/05/12 04:01:53;;;;;;;15.67;10.03;;;15.00;82.90;;;;;;5081290;28;20460;-70
2023/05/12 04:04:20;;;;;;;15.23;9.20;;;15.10;83.60;;;;;;5081387;28;20458;-70
2023/05/12 04:06:47;;;;;;;9.57;8.37;;;15.10;84.30;;;;;;5081252;28;20850;-70
2023/05/12 04:09:15;;;;;;;13.50;11.40;;;15.00;84.90;;;;;;5081492;28;20464;-70
2023/05/12 04:11:41;;;;;;;9.43;8.47;;;15.00;87.00;;;;;;5081226;28;20458;-70
2023/05/12 04:14:08;;;;;;;12.97;8.33;;;15.00;88.60;;;;;;5081563;28;20773;-70
2023/05/12 04:16:35;;;;;;;11.50;5.63;;;15.00;88.30;;;;;;5081444;28;20537;-70
2023/05/12 04:19:03;;;;;;;10.30;6.90;;;15.00;87.90;;;;;;5081700;28;20514;-70
2023/05/12 04:21:31;;;;;;;6.80;5.60;;;14.90;88.40;;;;;;5081456;28;20515;-71
2023/05/12 04:23:58;;;;;;;6.20;5.60;;;14.90;88.90;;;;;;5081462;28;20481;-70
2023/05/12 04:26:25;;;;;;;6.03;5.43;;;14.90;89.80;;;;;;5081058;28;20474;-70
2023/05/12 04:28:53;;;;;;;6.77;5.40;;;14.90;90.20;;;;;;5080956;28;20459;-70
2023/05/12 04:31:19;;;;;;;7.93;5.93;;;14.90;90.40;;;;;;5079761;28;20462;-68
2023/05/12 04:33:46;;;;;;;9.23;5.80;;;14.90;90.70;;;;;;5073879;28;20919;-70
2023/05/12 04:36:15;;;;;;;6.40;5.80;;;14.90;91.00;;;;;;5074577;28;20979;-68
2023/05/12 04:38:41;;;;;;;8.30;6.10;;;14.90;91.30;;;;;;5074308;28;20544;-68
2023/05/12 04:41:08;;;;;;;6.43;5.40;;;14.90;91.50;;;;;;5074675;28;20500;-68
2023/05/12 04:43:35;;;;;;;8.17;5.43;;;15.00;91.90;;;;;;5073852;28;20464;-68
2023/05/12 04:46:02;;;;;;;11.40;6.90;;;15.00;92.10;;;;;;5074203;28;20454;-68
2023/05/12 04:48:29;;;;;;;10.30;7.60;;;15.00;92.50;;;;;;5074347;28;20454;-69
2023/05/12 04:50:58;;;;;;;9.37;6.10;;;15.00;93.60;;;;;;5074042;28;20927;-69
2023/05/12 04:53:26;;;;;;;7.23;5.90;;;15.10;93.40;;;;;;5073974;28;20453;-68
2023/05/12 04:55:55;;;;;;;10.50;7.43;;;15.10;93.60;;;;;;5074065;28;20454;-68
2023/05/12 04:58:22;;;;;;;11.20;6.00;;;15.20;94.40;;;;;;5074164;28;20478;-69
2023/05/12 05:00:48;;;;;;;12.43;6.77;;;15.20;93.90;;;;;;5075072;28;20544;-68
2023/05/12 05:03:15;;;;;;;10.10;5.93;;;15.20;94.40;;;;;;5078717;28;20454;-69
2023/05/12 05:05:42;;;;;;;32.37;23.60;;;15.30;93.90;;;;;;5084129;28;21012;-71
2023/05/12 05:08:09;;;;;;;41.60;31.00;;;15.30;93.20;;;;;;5084927;28;20522;-69
2023/05/12 05:10:37;;;;;;;10.97;7.70;;;15.30;93.00;;;;;;5083894;28;20454;-69
2023/05/12 05:13:04;;;;;;;9.03;6.00;;;15.30;92.90;;;;;;5084255;28;20522;-69
2023/05/12 05:15:31;;;;;;;6.57;5.80;;;15.40;92.70;;;;;;5085026;28;20458;-70
2023/05/12 05:17:58;;;;;;;10.37;6.90;;;15.40;92.90;;;;;;5083787;28;20549;-69
2023/05/12 05:20:27;;;;;;;8.53;6.53;;;15.40;93.00;;;;;;5080007;28;20458;-68
2023/05/12 05:22:54;;;;;;;29.57;21.97;;;15.50;93.40;;;;;;5077632;28;20458;-68
2023/05/12 05:25:21;;;;;;;21.03;12.77;;;15.50;93.10;;;;;;5077571;28;20484;-68
2023/05/12 05:27:49;;;;;;;10.83;6.30;;;15.60;93.30;;;;;;5077180;28;20476;-68
2023/05/12 05:30:16;;;;;;;8.80;6.00;;;15.60;93.30;;;;;;5077622;28;20556;-68
2023/05/12 05:32:43;;;;;;;8.00;6.10;;;15.60;93.20;;;;;;5077548;28;20469;-68
2023/05/12 05:35:10;;;;;;;6.70;6.03;;;15.70;93.00;;;;;;5077310;28;20458;-68
2023/05/12 05:37:37;;;;;;;7.93;6.23;;;15.70;93.00;;;;;;5077025;28;20488;-68
2023/05/12 05:40:04;;;;;;;7.50;6.30;;;15.70;92.90;;;;;;5076939;28;20496;-68
2023/05/12 05:42:31;;;;;;;8.80;6.60;;;15.70;93.40;;;;;;5077113;28;20493;-68
2023/05/12 05:44:59;;;;;;;7.30;5.90;;;15.70;93.70;;;;;;5077283;28;20537;-68
2023/05/12 05:47:27;;;;;;;6.67;5.67;;;15.70;93.40;;;;;;5077303;28;20450;-69
2023/05/12 05:49:54;;;;;;;7.80;6.40;;;15.80;93.50;;;;;;5076992;28;20454;-67
2023/05/12 05:52:21;;;;;;;12.13;5.37;;;15.90;93.20;;;;;;5076742;28;20541;-67
2023/05/12 05:54:48;;;;;;;9.90;5.53;;;15.90;93.10;;;;;;5076822;28;20462;-68
2023/05/12 05:57:15;;;;;;;8.47;6.00;;;16.00;93.10;;;;;;5076817;28;20454;-68
2023/05/12 05:59:41;;;;;;;8.80;5.73;;;16.00;93.00;;;;;;5077080;28;20454;-68
2023/05/12 06:02:10;;;;;;;11.00;5.90;;;16.10;92.50;;;;;;5076511;28;20462;-68
2023/05/12 06:04:37;;;;;;;6.80;5.50;;;16.10;92.70;;;;;;5076782;28;20905;-69
2023/05/12 06:07:04;;;;;;;11.47;6.60;;;16.20;93.00;;;;;;5076980;28;20454;-68
2023/05/12 06:09:31;;;;;;;11.53;7.50;;;16.20;93.00;;;;;;5076591;28;20553;-68
2023/05/12 06:11:58;;;;;;;10.57;6.63;;;16.30;93.00;;;;;;5076875;28;20520;-69
2023/05/12 06:14:24;;;;;;;11.87;8.23;;;16.30;93.00;;;;;;5076612;28;20454;-68
2023/05/12 06:16:51;;;;;;;6.00;5.13;;;16.40;93.10;;;;;;5076174;28;20454;-68
2023/05/12 06:19:19;;;;;;;6.53;5.30;;;16.40;92.40;;;;;;5076172;28;20535;-68
2023/05/12 06:21:46;;;;;;;15.00;5.17;;;16.40;91.80;;;;;;5076263;28;20929;-69
2023/05/12 06:24:13;;;;;;;6.23;5.63;;;16.50;92.40;;;;;;5076354;28;20469;-68
2023/05/12 06:26:40;;;;;;;6.43;5.80;;;16.50;91.30;;;;;;5076449;28;20485;-69
2023/05/12 06:29:07;;;;;;;11.87;5.00;;;16.60;91.50;;;;;;5076542;28;20796;-68
2023/05/12 06:31:34;;;;;;;5.93;5.30;;;16.60;91.50;;;;;;5076377;28;20473;-69
2023/05/12 06:34:01;;;;;;;6.20;4.93;;;16.60;91.30;;;;;;5075849;28;20461;-68
2023/05/12 06:36:30;;;;;;;9.90;5.40;;;16.70;90.50;;;;;;5076318;28;20519;-68
2023/05/12 06:38:57;;;;;;;7.80;5.77;;;16.70;90.00;;;;;;5075932;28;20767;-68
2023/05/12 06:41:24;;;;;;;9.90;5.63;;;16.80;90.50;;;;;;5075794;28;20535;-69
2023/05/12 06:43:51;;;;;;;9.23;5.00;;;16.80;90.80;;;;;;5076061;28;20545;-69
2023/05/12 06:46:17;;;;;;;6.90;4.70;;;16.90;90.90;;;;;;5076160;28;20469;-69
2023/05/12 06:48:45;;;;;;;5.60;4.40;;;17.00;90.20;;;;;;5075635;28;20541;-69
2023/05/12 06:51:12;;;;;;;6.93;5.70;;;17.00;89.60;;;;;;5076254;28;20837;-68
2023/05/12 06:53:40;;;;;;;8.90;4.70;;;17.10;90.20;;;;;;5075876;28;20829;-68
2023/05/12 06:56:07;;;;;;;7.03;5.20;;;17.10;89.10;;;;;;5075447;28;20458;-68
2023/05/12 06:58:35;;;;;;;6.60;5.20;;;17.10;89.50;;;;;;5076037;28;20513;-68
2023/05/12 07:01:01;;;;;;;6.47;4.87;;;17.10;89.10;;;;;;5076169;28;20465;-69
2023/05/12 07:03:32;;;;;;;5.83;4.80;;;17.20;88.90;;;;;;5075996;28;20484;-68
2023/05/12 07:05:58;;;;;;;11.33;5.10;;;17.30;88.00;;;;;;5076429;28;20461;-68
2023/05/12 07:08:25;;;;;;;5.97;4.87;;;17.30;86.10;;;;;;5075975;28;20541;-68
2023/05/12 07:10:53;;;;;;;9.50;5.37;;;17.30;86.70;;;;;;5075887;28;20461;-69
2023/05/12 07:13:20;;;;;;;5.07;4.50;;;17.40;86.00;;;;;;5075536;28;20454;-67
2023/05/12 07:15:47;;;;;;;14.60;5.43;;;17.40;85.10;;;;;;5075575;28;20764;-69
2023/05/12 07:18:14;;;;;;;9.70;5.57;;;17.50;87.30;;;;;;5075946;28;20488;-68
2023/05/12 07:20:41;;;;;;;9.60;5.10;;;17.60;88.00;;;;;;5075903;28;20494;-68
2023/05/12 07:23:09;;;;;;;8.73;4.40;;;17.60;87.80;;;;;;5075424;28;20458;-68
2023/05/12 07:25:36;;;;;;;6.63;4.60;;;17.70;87.80;;;;;;5076183;28;20460;-68
2023/05/12 07:28:04;;;;;;;9.87;5.10;;;17.80;88.00;;;;;;5075230;28;20486;-68
2023/05/12 07:30:31;;;;;;;6.40;4.70;;;17.90;86.40;;;;;;5075610;28;20541;-69
2023/05/12 07:33:00;;;;;;;6.33;5.57;;;17.90;83.90;;;;;;5075707;28;20562;-68
2023/05/12 07:35:27;;;;;;;6.87;4.97;;;17.90;85.50;;;;;;5075286;28;20454;-68
2023/05/12 07:37:53;;;;;;;5.87;5.10;;;18.00;85.20;;;;;;5074830;28;20482;-69
2023/05/12 07:40:20;;;;;;;10.40;5.20;;;18.00;85.30;;;;;;5075333;28;20464;-68
2023/05/12 07:42:47;;;;;;;11.37;5.43;;;18.00;87.50;;;;;;5075353;28;20470;-68
2023/05/12 07:45:21;;;;;;;6.30;4.37;;;18.10;87.00;;;;;;5075179;28;20549;-69
2023/05/12 07:47:49;;;;;;;6.83;4.83;;;18.10;86.60;;;;;;5075342;28;20529;-68
2023/05/12 07:50:16;;;;;;;6.57;5.07;;;18.20;86.00;;;;;;5074869;28;20458;-68
2023/05/12 07:52:47;;;;;;;7.87;5.00;;;18.20;84.90;;;;;;5074938;28;20458;-69
2023/05/12 07:55:15;;;;;;;4.90;4.40;;;18.40;86.10;;;;;;5075477;28;20443;-69
2023/05/12 07:57:42;;;;;;;8.67;4.27;;;18.40;83.80;;;;;;5074869;28;20488;-69
2023/05/12 08:00:11;;;;;;;11.80;4.80;;;18.50;82.70;;;;;;5074725;28;20450;-69
2023/05/12 08:02:40;;;;;;;10.60;5.03;;;18.50;79.50;;;;;;5075001;28;20530;-69
2023/05/12 08:05:09;;;;;;;5.03;4.60;;;18.60;77.00;;;;;;5075104;28;20464;-69
2023/05/12 08:07:36;;;;;;;10.40;4.53;;;18.70;77.70;;;;;;5074442;28;20515;-69
2023/05/12 08:10:04;;;;;;;7.67;4.90;;;18.80;77.50;;;;;;5075024;28;20557;-69
2023/05/12 08:12:31;;;;;;;6.93;4.10;;;18.80;76.60;;;;;;5074012;28;20466;-69
2023/05/12 08:14:58;;;;;;;6.67;4.60;;;18.80;74.10;;;;;;5074561;28;20462;-68
2023/05/12 08:17:24;;;;;;;7.77;5.27;;;18.90;74.80;;;;;;5074522;28;20458;-68
2023/05/12 08:19:53;;;;;;;5.13;3.97;;;19.00;73.20;;;;;;5074439;28;20500;-69
2023/05/12 08:22:19;;;;;;;4.47;4.07;;;19.10;69.00;;;;;;5074493;28;20937;-68
2023/05/12 08:24:46;;;;;;;5.30;4.20;;;19.10;64.30;;;;;;5074774;28;20537;-68
2023/05/12 08:27:13;;;;;;;6.33;3.90;;;19.20;65.20;;;;;;5074621;28;20501;-69
2023/05/12 08:29:40;;;;;;;7.50;4.33;;;19.30;67.00;;;;;;5074545;28;20787;-69
2023/05/12 08:32:07;;;;;;;8.30;3.83;;;19.30;65.20;;;;;;5074096;28;20493;-68
2023/05/12 08:34:34;;;;;;;10.37;4.37;;;19.40;63.60;;;;;;5074644;28;20491;-69
2023/05/12 08:37:03;;;;;;;4.93;3.20;;;19.60;64.00;;;;;;5077828;28;20454;-68
2023/05/12 08:39:30;;;;;;;5.93;3.97;;;19.70;61.30;;;;;;5078377;28;20576;-69
2023/05/12 08:42:09;;;;;;;4.47;3.43;;;19.80;59.00;;;;;;5079019;28;20461;-69
2023/05/12 08:44:37;;;;;;;4.20;3.60;;;19.90;58.90;;;;;;5078364;28;20533;-69
2023/05/12 08:47:06;;;;;;;4.27;3.87;;;19.90;57.40;;;;;;5078536;28;20450;-69
2023/05/12 08:49:35;;;;;;;11.63;4.37;;;20.00;56.90;;;;;;5078700;28;20532;-69
2023/05/12 08:52:04;;;;;;;11.53;3.30;;;20.00;53.50;;;;;;5078532;28;20488;-68
2023/05/12 08:54:32;;;;;;;4.10;3.40;;;20.00;50.50;;;;;;5078487;28;20529;-69
2023/05/12 08:57:01;;;;;;;7.07;3.83;;;20.00;52.00;;;;;;5078289;28;20489;-70
2023/05/12 08:59:28;;;;;;;3.50;3.20;;;20.10;52.20;;;;;;5078477;28;20478;-69
2023/05/12 09:01:56;;;;;;;4.43;3.60;;;20.20;51.90;;;;;;5078494;28;20454;-69
2023/05/12 09:04:23;;;;;;;5.70;3.47;;;20.20;51.70;;;;;;5078340;28;20614;-68
2023/05/12 09:06:50;;;;;;;3.73;3.43;;;20.20;50.00;;;;;;5078164;28;20462;-69
2023/05/12 09:09:20;;;;;;;5.20;3.67;;;20.20;49.10;;;;;;5078323;28;20450;-68
2023/05/12 09:11:50;;;;;;;6.83;4.63;;;20.30;47.50;;;;;;5078567;28;20464;-69
2023/05/12 09:14:23;;;;;;;6.07;3.60;;;20.40;47.00;;;;;;5078383;28;20457;-69
2023/05/12 09:16:55;;;;;;;4.97;4.00;;;20.40;45.60;;;;;;5078551;28;20465;-69
2023/05/12 09:19:22;;;;;;;6.03;3.60;;;20.40;45.90;;;;;;5078043;28;20850;-68
2023/05/12 09:21:49;;;;;;;3.93;3.50;;;20.50;45.40;;;;;;5078452;28;20557;-70
2023/05/12 09:24:18;;;;;;;6.23;3.70;;;20.60;44.60;;;;;;5078351;28;20454;-68
2023/05/12 09:26:47;;;;;;;4.10;3.70;;;20.60;42.60;;;;;;5077483;28;20454;-68
2023/05/12 09:29:14;;;;;;;4.20;3.53;;;20.60;42.60;;;;;;5078097;28;20962;-69
2023/05/12 09:31:49;;;;;;;5.57;3.50;;;20.70;41.80;;;;;;5078688;28;20453;-68
2023/05/12 09:34:16;;;;;;;4.33;3.83;;;20.70;42.40;;;;;;5078577;28;20442;-68
2023/05/12 09:36:44;;;;;;;4.60;2.97;;;20.80;43.30;;;;;;5078388;28;20486;-68
2023/05/12 09:39:12;;;;;;;4.10;3.30;;;20.80;41.30;;;;;;5076832;28;20528;-68
2023/05/12 09:41:42;;;;;;;4.57;4.07;;;20.80;38.70;;;;;;5076933;28;20943;-68
2023/05/12 09:44:10;;;;;;;4.60;3.10;;;20.80;39.10;;;;;;5077071;28;20537;-68
2023/05/12 09:46:38;;;;;;;4.90;3.60;;;20.90;38.20;;;;;;5076225;28;20460;-68
2023/05/12 09:49:05;;;;;;;3.43;3.17;;;20.90;39.20;;;;;;5077263;28;20472;-68
2023/05/12 09:51:32;;;;;;;4.43;3.30;;;21.00;40.00;;;;;;5077169;28;20480;-68
2023/05/12 09:53:59;;;;;;;3.80;3.43;;;21.10;40.50;;;;;;5077097;28;20794;-69
2023/05/12 09:56:30;;;;;;;4.63;4.20;;;21.10;40.80;;;;;;5076934;28;20462;-68
2023/05/12 09:58:58;;;;;;;4.23;3.47;;;21.10;41.90;;;;;;5076919;28;20530;-68
2023/05/12 10:01:27;;;;;;;4.20;3.20;;;21.20;40.20;;;;;;5076340;28;20918;-68
2023/05/12 10:03:55;;;;;;;7.83;3.63;;;21.30;38.10;;;;;;5076427;28;20811;-68
2023/05/12 10:06:28;;;;;;;6.67;3.40;;;21.40;36.90;;;;;;5076299;28;20493;-68
2023/05/12 10:09:02;;;;;;;6.33;3.30;;;21.40;37.70;;;;;;5076742;28;20435;-70
2023/05/12 10:11:29;;;;;;;5.20;3.23;;;21.40;37.20;;;;;;5076654;28;20461;-69
2023/05/12 10:13:59;;;;;;;3.70;3.37;;;21.50;37.30;;;;;;5076487;28;20632;-69
2023/05/12 10:16:27;;;;;;;6.97;3.90;;;21.60;38.10;;;;;;5076196;28;20519;-69
2023/05/12 10:18:55;;;;;;;3.63;3.30;;;21.60;37.00;;;;;;5076369;28;20804;-69
2023/05/12 10:21:23;;;;;;;5.93;3.50;;;21.60;35.90;;;;;;5076361;28;20513;-69
2023/05/12 10:23:50;;;;;;;5.37;3.33;;;21.70;37.80;;;;;;5076149;28;20465;-69
2023/05/12 10:26:18;;;;;;;3.90;3.23;;;21.70;36.20;;;;;;5076631;28;20454;-69
2023/05/12 10:28:46;;;;;;;7.80;3.77;;;21.70;35.30;;;;;;5076203;28;20458;-69
2023/05/12 10:31:14;;;;;;;3.43;3.13;;;21.70;34.90;;;;;;5076034;28;20864;-69
2023/05/12 10:33:41;;;;;;;5.53;3.27;;;21.70;36.20;;;;;;5075393;28;20923;-69
2023/05/12 10:36:18;;;;;;;6.03;3.40;;;21.80;35.90;;;;;;5075921;28;20618;-69
2023/05/12 10:38:48;;;;;;;4.07;3.67;;;21.80;35.00;;;;;;5075395;28;20576;-70
2023/05/12 10:41:15;;;;;;;6.77;3.43;;;21.90;35.90;;;;;;5075670;28;20470;-69
2023/05/12 10:43:45;;;;;;;8.43;3.27;;;21.90;35.90;;;;;;5075546;28;20918;-69
2023/05/12 10:46:19;;;;;;;7.50;3.47;;;22.00;35.80;;;;;;5075308;28;20454;-69
2023/05/12 10:48:54;;;;;;;5.70;3.20;;;22.10;35.70;;;;;;5075539;28;20471;-69
2023/05/12 10:51:23;;;;;;;7.50;3.70;;;22.20;35.00;;;;;;5076168;28;20453;-69
2023/05/12 10:53:56;;;;;;;5.73;4.13;;;22.20;34.40;;;;;;5075402;28;20531;-70
2023/05/12 10:56:24;;;;;;;5.13;4.30;;;22.20;34.60;;;;;;5076102;28;20530;-70
2023/05/12 10:59:08;;;;;;;3.57;3.27;;;22.30;35.50;;;;;;5074057;28;20898;-69
2023/05/12 11:01:36;;;;;;;3.90;3.23;;;22.40;35.30;;;;;;5074594;28;20808;-70
2023/05/12 11:04:11;;;;;;;7.23;3.57;;;22.50;35.60;;;;;;5074745;28;20454;-70
2023/05/12 11:06:38;;;;;;;5.00;3.50;;;22.60;35.50;;;;;;5075146;28;20453;-70
2023/05/12 11:09:06;;;;;;;4.97;3.50;;;22.70;34.30;;;;;;5075092;28;20485;-68
2023/05/12 11:11:33;;;;;;;4.83;3.17;;;22.80;33.90;;;;;;5074694;28;20457;-68
2023/05/12 11:14:01;;;;;;;4.20;3.50;;;22.90;33.70;;;;;;5074767;28;20457;-68
2023/05/12 11:16:27;;;;;;;4.47;3.43;;;23.20;34.70;;;;;;5074325;28;20474;-68
2023/05/12 11:19:02;;;;;;;20.87;16.17;;;24.00;32.70;;;;;;5074489;28;20454;-68
2023/05/12 11:21:30;;;;;;;5.20;3.60;;;25.30;32.00;;;;;;5074583;28;20514;-68
2023/05/12 11:23:58;;;;;;;3.40;3.10;;;26.80;31.00;;;;;;5075500;28;20454;-70
2023/05/12 11:26:26;;;;;;;3.20;2.90;;;28.20;29.00;;;;;;5076715;28;20465;-69
2023/05/12 11:28:52;;;;;;;4.20;3.50;;;29.60;27.90;;;;;;5076578;28;20783;-70
2023/05/12 11:31:20;;;;;;;3.90;2.90;;;30.90;25.20;;;;;;5077397;28;20454;-70
2023/05/12 11:33:48;;;;;;;2.93;2.63;;;31.90;23.20;;;;;;5077342;28;20767;-70
2023/05/12 11:36:19;;;;;;;4.07;3.03;;;32.90;20.70;;;;;;5077097;28;20926;-70
2023/05/12 11:38:49;;;;;;;3.33;3.03;;;33.80;18.80;;;;;;5077314;28;20490;-69
2023/05/12 11:41:22;;;;;;;4.17;3.00;;;34.50;17.00;;;;;;5077248;28;20449;-69
2023/05/12 11:43:49;;;;;;;3.60;3.30;;;35.20;16.20;;;;;;5078167;28;20772;-69
2023/05/12 11:46:24;;;;;;;3.67;3.37;;;35.70;16.00;;;;;;5077803;28;20936;-69
2023/05/12 11:48:55;;;;;;;4.70;3.33;;;36.20;14.40;;;;;;5077546;28;20434;-69
2023/05/12 11:51:24;;;;;;;4.57;3.30;;;36.10;13.60;;;;;;5077269;28;20453;-69
2023/05/12 11:53:52;;;;;;;6.50;2.73;;;36.20;12.50;;;;;;5076832;28;20489;-69
2023/05/12 11:56:20;;;;;;;8.23;3.40;;;36.30;12.30;;;;;;5077208;28;20495;-69
2023/05/12 11:58:55;;;;;;;4.43;3.57;;;36.40;12.70;;;;;;5076664;28;20519;-69
2023/05/12 12:01:23;;;;;;;7.87;3.80;;;36.40;12.40;;;;;;5077290;28;20833;-69
2023/05/12 12:03:51;;;;;;;4.97;4.57;;;36.40;12.30;;;;;;5077394;28;20454;-69
2023/05/12 12:06:19;;;;;;;3.50;3.20;;;36.60;12.50;;;;;;5077372;28;20537;-69
2023/05/12 12:08:52;;;;;;;3.97;3.00;;;36.30;11.40;;;;;;5076894;28;20586;-69
2023/05/12 12:11:19;;;;;;;3.77;3.00;;;35.70;12.00;;;;;;5077808;28;20461;-69
2023/05/12 12:13:51;;;;;;;4.17;3.80;;;35.50;12.90;;;;;;5078055;28;20458;-71
2023/05/12 12:16:18;;;;;;;5.33;3.03;;;35.70;12.20;;;;;;5077444;28;20509;-69
2023/05/12 12:18:45;;;;;;;3.93;3.03;;;35.70;11.50;;;;;;5077690;28;20541;-69
2023/05/12 12:21:12;;;;;;;3.50;3.13;;;35.60;11.30;;;;;;5077723;28;20811;-69
2023/05/12 12:23:38;;;;;;;4.60;3.10;;;36.10;11.80;;;;;;5076906;28;20454;-69
2023/05/12 12:26:07;;;;;;;6.00;3.20;;;35.90;11.10;;;;;;5076936;28;20527;-69
2023/05/12 12:28:34;;;;;;;3.63;2.87;;;35.70;11.00;;;;;;5076954;28;20462;-69
2023/05/12 12:31:01;;;;;;;5.77;3.30;;;35.70;10.50;;;;;;5077078;28;20508;-69
2023/05/12 12:33:27;;;;;;;4.90;3.20;;;35.80;10.70;;;;;;5076454;28;20497;-69
2023/05/12 12:35:54;;;;;;;3.60;2.60;;;36.10;11.10;;;;;;5076445;28;20449;-69
2023/05/12 12:38:21;;;;;;;3.40;3.00;;;36.20;10.80;;;;;;5075474;28;20573;-69
2023/05/12 12:40:48;;;;;;;5.07;3.03;;;36.60;11.10;;;;;;5075664;28;20746;-69
2023/05/12 12:43:16;;;;;;;6.97;2.90;;;37.00;10.20;;;;;;5076058;28;20549;-69
2023/05/12 12:45:43;;;;;;;6.23;3.37;;;36.80;9.90;;;;;;5076418;28;20465;-69
2023/05/12 12:48:10;;;;;;;4.90;3.27;;;36.80;10.10;;;;;;5076349;28;20486;-69